»·PEaware :: ATN3752 KSEA-KONT

ATN3752 :: KSEA-KONT

FLIGHT INFORMATION

Flight Status: Arrived
Operator:
Air Transport International
More flights by this operator :: More flights under this callsign
Pilot: Anonymous 3903 (3903)
Aircraft: BOEING 747-400 (WINGLETS)
(B744)
More flights by this aircraft type
Origin: KSEA Seattle-Tacoma Intl
United States
Destination: KONT Ontario Intl
United States
More flights between these airports :: More routes between these airports
Route: SUMMA1 SUMMA PAAGE Q11 PASKE TTE ZIGGY7
File this flight plan on PilotEdge
Remarks: RMK / SIMBRIEF
Altitude:
(Current/Filed)
37,000ft
Speed:
(Current/Filed)
471kts
Departed: 23-Oct-19 02:23 PM
Arrived: 23-Oct-19 04:17 PM
Distance/Time
Traveled:
831nm/1:54
Distance/Time
To Go:
Arrived

Flight Plot

Page will automatically refresh every two minutes.

Flight plan parsing failed; only flown route is shown


Map Options




Map Legend


Flown Route
Filed Route
Departure Airport
Arrival Airport
Navaid (VOR, NDB)
Fix

Horizontal Profiles

Position Reports

Time Latitude Longitude Heading Altitude Ground
Speed
23-Oct-19 13:42 47.454570 -122.303307 24 446ft 0kts
23-Oct-19 13:43 47.454571 -122.303307 24 446ft 0kts
23-Oct-19 13:44 47.454571 -122.303306 24 446ft 0kts
23-Oct-19 13:45 47.454573 -122.303305 24 446ft 0kts
23-Oct-19 13:46 47.454574 -122.303305 24 446ft 0kts
23-Oct-19 13:47 47.454575 -122.303304 24 446ft 0kts
23-Oct-19 13:48 47.454576 -122.303303 24 446ft 0kts
23-Oct-19 13:49 47.454577 -122.303303 24 446ft 0kts
23-Oct-19 13:50 47.454578 -122.303302 24 446ft 0kts
23-Oct-19 13:51 47.454579 -122.303301 24 446ft 0kts
23-Oct-19 13:52 47.454580 -122.303300 24 446ft 0kts
23-Oct-19 13:53 47.454581 -122.303300 24 446ft 0kts
23-Oct-19 13:54 47.454582 -122.303299 24 446ft 0kts
23-Oct-19 13:55 47.454583 -122.303298 24 446ft 0kts
23-Oct-19 13:56 47.454584 -122.303298 24 446ft 0kts
23-Oct-19 13:57 47.454585 -122.303297 24 446ft 0kts
23-Oct-19 13:58 47.454586 -122.303296 24 446ft 0kts
23-Oct-19 13:59 47.454587 -122.303295 24 446ft 0kts
23-Oct-19 14:00 47.454588 -122.303295 24 446ft 0kts
23-Oct-19 14:01 47.454589 -122.303294 24 446ft 0kts
23-Oct-19 14:02 47.454590 -122.303293 24 446ft 0kts
23-Oct-19 14:03 47.454592 -122.303293 24 446ft 0kts
23-Oct-19 14:04 47.454593 -122.303292 24 446ft 0kts
23-Oct-19 14:05 47.454594 -122.303291 24 446ft 0kts
23-Oct-19 14:06 47.454595 -122.303290 24 446ft 0kts
23-Oct-19 14:07 47.454596 -122.303290 24 446ft 0kts
23-Oct-19 14:08 47.454597 -122.303289 24 446ft 0kts
23-Oct-19 14:09 47.454598 -122.303288 24 446ft 0kts
23-Oct-19 14:10 47.454599 -122.303288 24 446ft 0kts
23-Oct-19 14:11 47.454600 -122.303287 24 446ft 0kts
23-Oct-19 14:12 47.454601 -122.303286 24 446ft 0kts
23-Oct-19 14:13 47.454602 -122.303285 24 446ft 0kts
23-Oct-19 14:14 47.454565 -122.303311 24 446ft 1kts
23-Oct-19 14:15 47.454192 -122.303628 340 446ft 3kts
23-Oct-19 14:16 47.454137 -122.304728 239 446ft 13kts
23-Oct-19 14:17 47.449086 -122.306302 175 446ft 18kts
23-Oct-19 14:18 47.444150 -122.306329 180 446ft 22kts
23-Oct-19 14:19 47.438150 -122.306385 180 446ft 21kts
23-Oct-19 14:20 47.432872 -122.305616 180 446ft 17kts
23-Oct-19 14:21 47.431286 -122.306690 272 446ft 15kts
23-Oct-19 14:22 47.436700 -122.308070 0 446ft 109kts
23-Oct-19 14:23 47.490021 -122.308632 358 2987ft 226kts
23-Oct-19 14:24 47.562907 -122.309564 358 5558ft 272kts
23-Oct-19 14:25 47.612344 -122.232417 80 8982ft 297kts
23-Oct-19 14:26 47.601389 -122.100215 127 10456ft 382kts
23-Oct-19 14:27 47.502588 -122.056227 203 12942ft 389kts
23-Oct-19 14:28 47.400143 -122.119280 206 16323ft 424kts
23-Oct-19 14:29 47.272467 -122.117971 181 19384ft 489kts
23-Oct-19 14:30 47.133471 -122.089584 181 22057ft 521kts
23-Oct-19 14:31 46.986046 -122.059146 181 24684ft 546kts
23-Oct-19 14:32 46.832181 -122.028279 182 27046ft 568kts
23-Oct-19 14:33 46.672899 -121.998339 180 28941ft 590kts
23-Oct-19 14:34 46.526219 -121.876506 139 31131ft 622kts
23-Oct-19 14:35 46.386103 -121.740479 166 33338ft 599kts
23-Oct-19 14:36 46.226505 -121.691795 178 35315ft 578kts
23-Oct-19 14:37 46.069612 -121.652286 178 37056ft 571kts
23-Oct-19 14:38 45.913682 -121.611345 178 37096ft 569kts
23-Oct-19 14:39 45.757482 -121.570645 178 37091ft 569kts
23-Oct-19 14:40 45.601842 -121.530317 178 37088ft 570kts
23-Oct-19 14:41 45.446024 -121.490181 177 37094ft 568kts
23-Oct-19 14:42 45.290336 -121.450294 177 37105ft 568kts
23-Oct-19 14:43 45.134614 -121.410626 177 37113ft 567kts
23-Oct-19 14:44 44.979239 -121.371263 177 37124ft 567kts
23-Oct-19 14:45 44.824008 -121.332149 177 37131ft 566kts
23-Oct-19 14:46 44.668910 -121.293288 177 37137ft 565kts
23-Oct-19 14:47 44.513980 -121.254673 177 37140ft 566kts
23-Oct-19 14:48 44.358811 -121.216210 177 37139ft 565kts
23-Oct-19 14:49 44.204064 -121.178056 177 37139ft 565kts
23-Oct-19 14:50 44.049158 -121.140068 176 37130ft 566kts
23-Oct-19 14:51 43.894436 -121.102325 176 37132ft 563kts
23-Oct-19 14:52 43.739794 -121.064797 176 37139ft 564kts
23-Oct-19 14:53 43.585393 -121.027524 176 37153ft 563kts
23-Oct-19 14:54 43.431541 -120.990465 176 37169ft 563kts
23-Oct-19 14:55 43.277056 -120.953628 176 37186ft 563kts
23-Oct-19 14:56 43.122763 -120.916622 176 37201ft 564kts
23-Oct-19 14:57 42.968200 -120.879024 176 37215ft 563kts
23-Oct-19 14:58 42.814194 -120.841691 176 37226ft 563kts
23-Oct-19 14:59 42.659486 -120.804191 176 37235ft 563kts
23-Oct-19 15:00 42.505417 -120.767169 176 37242ft 564kts
23-Oct-19 15:01 42.350724 -120.730189 176 37245ft 563kts
23-Oct-19 15:02 42.196514 -120.693517 176 37248ft 562kts
23-Oct-19 15:03 42.042543 -120.657078 176 37257ft 563kts
23-Oct-19 15:04 41.888507 -120.620839 176 37256ft 561kts
23-Oct-19 15:05 41.734214 -120.584636 176 37270ft 562kts
23-Oct-19 15:06 41.580713 -120.548860 176 37275ft 561kts
23-Oct-19 15:07 41.426937 -120.513187 176 37272ft 560kts
23-Oct-19 15:08 41.273450 -120.477623 176 37277ft 560kts
23-Oct-19 15:09 41.119970 -120.442377 176 37271ft 558kts
23-Oct-19 15:10 40.967267 -120.405818 173 37266ft 559kts
23-Oct-19 15:11 40.816076 -120.357921 171 37256ft 559kts
23-Oct-19 15:12 40.664367 -120.310964 171 37252ft 559kts
23-Oct-19 15:13 40.513172 -120.264196 171 37250ft 558kts
23-Oct-19 15:14 40.361567 -120.217745 171 37250ft 558kts
23-Oct-19 15:15 40.212820 -120.172408 171 37249ft 558kts
23-Oct-19 15:16 40.061373 -120.126460 171 37248ft 558kts
23-Oct-19 15:17 39.910414 -120.080869 171 37254ft 558kts
23-Oct-19 15:18 39.759338 -120.035450 171 37257ft 557kts
23-Oct-19 15:19 39.608345 -119.990256 172 37255ft 557kts
23-Oct-19 15:20 39.456978 -119.945156 171 37253ft 557kts
23-Oct-19 15:21 39.305888 -119.900338 171 37262ft 556kts
23-Oct-19 15:22 39.155137 -119.855816 171 37250ft 556kts
23-Oct-19 15:23 39.004133 -119.811415 171 37265ft 556kts
23-Oct-19 15:24 38.853085 -119.767196 171 37279ft 555kts
23-Oct-19 15:25 38.703004 -119.723447 171 37272ft 553kts
23-Oct-19 15:26 38.553058 -119.679814 171 37263ft 552kts
23-Oct-19 15:27 38.403474 -119.636654 171 37260ft 550kts
23-Oct-19 15:28 38.253850 -119.593819 171 37254ft 550kts
23-Oct-19 15:30 38.104629 -119.551594 171 37254ft 549kts
23-Oct-19 15:31 37.955161 -119.509399 171 37240ft 549kts
23-Oct-19 15:32 37.806434 -119.467373 171 37252ft 548kts
23-Oct-19 15:33 37.657358 -119.425564 171 37266ft 547kts
23-Oct-19 15:34 37.508915 -119.384117 171 37252ft 547kts
23-Oct-19 15:35 37.360359 -119.342809 171 37235ft 546kts
23-Oct-19 15:36 37.212259 -119.301795 171 37215ft 545kts
23-Oct-19 15:37 37.063788 -119.260843 171 37189ft 544kts
23-Oct-19 15:38 36.916380 -119.220344 171 37167ft 543kts
23-Oct-19 15:39 36.768822 -119.179964 171 37166ft 542kts
23-Oct-19 15:40 36.621634 -119.139843 171 37150ft 540kts
23-Oct-19 15:41 36.475012 -119.100031 171 37141ft 539kts
23-Oct-19 15:42 36.328576 -119.060339 171 37138ft 539kts
23-Oct-19 15:43 36.182006 -119.020911 171 37142ft 538kts
23-Oct-19 15:44 36.034360 -119.013078 189 37140ft 528kts
23-Oct-19 15:45 35.888725 -119.010123 171 37148ft 530kts
23-Oct-19 15:46 35.745707 -118.958807 165 37138ft 535kts
23-Oct-19 15:47 35.603611 -118.905404 165 37136ft 535kts
23-Oct-19 15:48 35.460923 -118.852157 165 37137ft 535kts
23-Oct-19 15:48 35.342352 -118.808110 165 37144ft 534kts
23-Oct-19 15:50 35.178505 -118.747697 165 34818ft 514kts
23-Oct-19 15:51 35.053367 -118.675106 141 32639ft 496kts
23-Oct-19 15:51 34.980757 -118.570249 125 30789ft 480kts
23-Oct-19 15:52 34.896190 -118.447247 126 28725ft 466kts
23-Oct-19 15:54 34.801140 -118.308665 125 26366ft 450kts
23-Oct-19 15:54 34.734846 -118.212741 125 24716ft 439kts
23-Oct-19 15:55 34.657341 -118.101165 125 22794ft 425kts
23-Oct-19 15:56 34.593948 -117.984206 113 20831ft 407kts
23-Oct-19 15:57 34.540727 -117.864686 114 18886ft 398kts
23-Oct-19 15:58 34.487602 -117.749128 115 17100ft 386kts
23-Oct-19 15:59 34.436920 -117.639231 115 16064ft 352kts
23-Oct-19 16:00 34.390180 -117.537893 115 14063ft 341kts
23-Oct-19 16:01 34.345602 -117.441649 116 12399ft 313kts
23-Oct-19 16:02 34.299088 -117.352910 141 9974ft 316kts
23-Oct-19 16:03 34.222295 -117.316112 161 8440ft 272kts
23-Oct-19 16:04 34.150717 -117.289803 161 7920ft 255kts
23-Oct-19 16:05 34.087068 -117.265813 152 6681ft 232kts
23-Oct-19 16:06 34.041108 -117.213411 131 5575ft 228kts
23-Oct-19 16:07 33.998260 -117.158314 134 4047ft 223kts
23-Oct-19 16:08 33.953892 -117.177425 267 3922ft 205kts
23-Oct-19 16:09 33.977721 -117.237978 301 3921ft 200kts
23-Oct-19 16:10 34.006373 -117.296136 301 3902ft 201kts
23-Oct-19 16:11 34.034882 -117.354086 301 3892ft 195kts
23-Oct-19 16:12 34.054691 -117.410562 277 3497ft 178kts
23-Oct-19 16:13 34.055042 -117.466657 271 2807ft 154kts
23-Oct-19 16:14 34.055015 -117.516945 271 2017ft 145kts
23-Oct-19 16:15 34.054979 -117.565828 270 1249ft 146kts
23-Oct-19 16:16 34.054987 -117.593525 271 957ft 0kts
23-Oct-19 16:17 34.054987 -117.593527 271 957ft 0kts

Navigation Log

Ident Type
Flight plan parsing failed, navigation log unavailable